sensor_id;sensor_type;location;lat;lon;timestamp;pressure;altitude;pressure_sealevel;temperature;humidity
76216;BME280;65010;50.190;18.930;2024-01-07T00:01:47;97683.97;;;1.06;69.92
76216;BME280;65010;50.190;18.930;2024-01-07T00:04:53;97687.88;;;1.01;70.00
76216;BME280;65010;50.190;18.930;2024-01-07T00:08:01;97675.56;;;0.93;69.28
76216;BME280;65010;50.190;18.930;2024-01-07T00:11:06;97688.63;;;0.92;70.14
76216;BME280;65010;50.190;18.930;2024-01-07T00:14:17;97684.31;;;0.92;70.37
76216;BME280;65010;50.190;18.930;2024-01-07T00:17:23;97688.38;;;0.95;70.31
76216;BME280;65010;50.190;18.930;2024-01-07T00:20:30;97687.69;;;0.93;69.97
76216;BME280;65010;50.190;18.930;2024-01-07T00:23:36;97698.75;;;0.95;70.53
76216;BME280;65010;50.190;18.930;2024-01-07T00:26:42;97697.34;;;0.90;69.68
76216;BME280;65010;50.190;18.930;2024-01-07T00:29:51;97691.75;;;0.85;69.74
76216;BME280;65010;50.190;18.930;2024-01-07T00:32:57;97696.09;;;0.85;69.85
76216;BME280;65010;50.190;18.930;2024-01-07T00:36:04;97696.50;;;0.80;69.94
76216;BME280;65010;50.190;18.930;2024-01-07T00:39:11;97704.50;;;0.77;69.66
76216;BME280;65010;50.190;18.930;2024-01-07T00:42:17;97709.25;;;0.72;69.74
76216;BME280;65010;50.190;18.930;2024-01-07T00:45:26;97708.78;;;0.67;69.82
76216;BME280;65010;50.190;18.930;2024-01-07T00:48:32;97717.19;;;0.59;69.35
76216;BME280;65010;50.190;18.930;2024-01-07T00:51:38;97717.56;;;0.55;69.45
76216;BME280;65010;50.190;18.930;2024-01-07T00:54:44;97715.59;;;0.47;69.52
76216;BME280;65010;50.190;18.930;2024-01-07T00:57:51;97723.47;;;0.45;69.78
76216;BME280;65010;50.190;18.930;2024-01-07T01:00:59;97718.69;;;0.41;69.66
76216;BME280;65010;50.190;18.930;2024-01-07T01:04:06;97726.44;;;0.41;69.26
76216;BME280;65010;50.190;18.930;2024-01-07T01:07:12;97715.34;;;0.29;68.22
76216;BME280;65010;50.190;18.930;2024-01-07T01:10:19;97731.91;;;0.26;68.80
76216;BME280;65010;50.190;18.930;2024-01-07T01:13:27;97729.94;;;0.19;69.33
76216;BME280;65010;50.190;18.930;2024-01-07T01:16:36;97734.41;;;0.17;69.08
76216;BME280;65010;50.190;18.930;2024-01-07T01:19:42;97739.84;;;0.14;70.03
76216;BME280;65010;50.190;18.930;2024-01-07T01:22:49;97734.31;;;0.18;70.58
76216;BME280;65010;50.190;18.930;2024-01-07T01:25:54;97735.69;;;0.22;70.04
76216;BME280;65010;50.190;18.930;2024-01-07T01:29:01;97732.50;;;0.30;71.05
76216;BME280;65010;50.190;18.930;2024-01-07T01:32:09;97735.66;;;0.34;70.58
76216;BME280;65010;50.190;18.930;2024-01-07T01:35:16;97735.78;;;0.32;70.19
76216;BME280;65010;50.190;18.930;2024-01-07T01:38:21;97735.56;;;0.24;68.83
76216;BME280;65010;50.190;18.930;2024-01-07T01:41:28;97735.88;;;0.09;68.69
76216;BME280;65010;50.190;18.930;2024-01-07T01:44:34;97742.44;;;0.02;69.27
76216;BME280;65010;50.190;18.930;2024-01-07T01:47:43;97743.41;;;0.01;70.07
76216;BME280;65010;50.190;18.930;2024-01-07T01:50:51;97747.84;;;-0.01;70.03
76216;BME280;65010;50.190;18.930;2024-01-07T01:54:03;97750.00;;;-0.06;69.85
76216;BME280;65010;50.190;18.930;2024-01-07T01:57:15;97744.25;;;-0.10;69.91
76216;BME280;65010;50.190;18.930;2024-01-07T02:00:26;97755.75;;;-0.02;70.39
76216;BME280;65010;50.190;18.930;2024-01-07T02:03:35;97748.22;;;0.06;70.76
76216;BME280;65010;50.190;18.930;2024-01-07T02:06:41;97752.88;;;0.12;70.51
76216;BME280;65010;50.190;18.930;2024-01-07T02:09:47;97757.25;;;0.12;69.45
76216;BME280;65010;50.190;18.930;2024-01-07T02:12:54;97754.88;;;0.08;69.76
76216;BME280;65010;50.190;18.930;2024-01-07T02:15:59;97756.28;;;0.13;69.49
76216;BME280;65010;50.190;18.930;2024-01-07T02:19:09;97753.47;;;0.16;69.28
76216;BME280;65010;50.190;18.930;2024-01-07T02:22:16;97748.16;;;0.17;69.58
76216;BME280;65010;50.190;18.930;2024-01-07T02:25:24;97755.78;;;0.19;69.27
76216;BME280;65010;50.190;18.930;2024-01-07T02:28:31;97763.31;;;0.22;69.19
76216;BME280;65010;50.190;18.930;2024-01-07T02:31:38;97761.66;;;0.21;68.19
76216;BME280;65010;50.190;18.930;2024-01-07T02:34:44;97763.34;;;0.10;68.70
76216;BME280;65010;50.190;18.930;2024-01-07T02:37:50;97758.06;;;0.01;68.30
76216;BME280;65010;50.190;18.930;2024-01-07T02:40:59;97760.56;;;-0.09;68.24
76216;BME280;65010;50.190;18.930;2024-01-07T02:44:06;97766.81;;;-0.23;68.27
76216;BME280;65010;50.190;18.930;2024-01-07T02:47:15;97765.31;;;-0.37;69.90
76216;BME280;65010;50.190;18.930;2024-01-07T02:50:22;97758.88;;;-0.42;71.15
76216;BME280;65010;50.190;18.930;2024-01-07T02:53:29;97765.91;;;-0.44;71.14
76216;BME280;65010;50.190;18.930;2024-01-07T02:56:37;97767.91;;;-0.37;71.98
76216;BME280;65010;50.190;18.930;2024-01-07T02:59:44;97760.16;;;-0.37;71.03
76216;BME280;65010;50.190;18.930;2024-01-07T03:02:49;97754.41;;;-0.40;70.40
76216;BME280;65010;50.190;18.930;2024-01-07T03:05:56;97764.72;;;-0.40;70.54
76216;BME280;65010;50.190;18.930;2024-01-07T03:09:02;97768.72;;;-0.36;70.78
76216;BME280;65010;50.190;18.930;2024-01-07T03:12:11;97769.91;;;-0.40;69.93
76216;BME280;65010;50.190;18.930;2024-01-07T03:15:17;97757.34;;;-0.45;70.34
76216;BME280;65010;50.190;18.930;2024-01-07T03:18:23;97762.72;;;-0.48;69.49
76216;BME280;65010;50.190;18.930;2024-01-07T03:21:30;97771.78;;;-0.42;70.16
76216;BME280;65010;50.190;18.930;2024-01-07T03:24:36;97766.72;;;-0.44;69.35
76216;BME280;65010;50.190;18.930;2024-01-07T03:27:45;97765.09;;;-0.45;69.28
76216;BME280;65010;50.190;18.930;2024-01-07T03:30:51;97771.66;;;-0.52;67.98
76216;BME280;65010;50.190;18.930;2024-01-07T03:33:57;97780.56;;;-0.56;68.64
76216;BME280;65010;50.190;18.930;2024-01-07T03:37:04;97772.94;;;-0.58;69.02
76216;BME280;65010;50.190;18.930;2024-01-07T03:40:11;97772.13;;;-0.58;68.89
76216;BME280;65010;50.190;18.930;2024-01-07T03:43:20;97769.66;;;-0.60;68.82
76216;BME280;65010;50.190;18.930;2024-01-07T03:46:26;97782.56;;;-0.60;68.15
76216;BME280;65010;50.190;18.930;2024-01-07T03:49:33;97781.84;;;-0.62;68.34
76216;BME280;65010;50.190;18.930;2024-01-07T03:52:39;97786.44;;;-0.65;67.85
76216;BME280;65010;50.190;18.930;2024-01-07T03:55:45;97787.50;;;-0.68;68.47
76216;BME280;65010;50.190;18.930;2024-01-07T04:03:41;97788.53;;;-0.59;68.87
76216;BME280;65010;50.190;18.930;2024-01-07T04:06:56;97780.22;;;-0.74;68.20
76216;BME280;65010;50.190;18.930;2024-01-07T04:10:03;97790.78;;;-0.66;68.02
76216;BME280;65010;50.190;18.930;2024-01-07T04:13:10;97792.19;;;-0.62;68.34
76216;BME280;65010;50.190;18.930;2024-01-07T04:16:20;97792.28;;;-0.63;67.96
76216;BME280;65010;50.190;18.930;2024-01-07T04:19:25;97799.09;;;-0.62;68.67
76216;BME280;65010;50.190;18.930;2024-01-07T04:22:32;97801.00;;;-0.64;68.93
76216;BME280;65010;50.190;18.930;2024-01-07T04:25:38;97797.34;;;-0.62;69.16
76216;BME280;65010;50.190;18.930;2024-01-07T04:28:45;97802.28;;;-0.59;69.38
76216;BME280;65010;50.190;18.930;2024-01-07T04:31:53;97805.56;;;-0.57;68.25
76216;BME280;65010;50.190;18.930;2024-01-07T04:35:00;97802.03;;;-0.56;68.01
76216;BME280;65010;50.190;18.930;2024-01-07T04:38:06;97804.28;;;-0.62;67.99
76216;BME280;65010;50.190;18.930;2024-01-07T04:41:12;97810.59;;;-0.66;67.15
76216;BME280;65010;50.190;18.930;2024-01-07T04:44:18;97810.25;;;-0.62;68.50
76216;BME280;65010;50.190;18.930;2024-01-07T04:47:31;97818.34;;;-0.66;67.00
76216;BME280;65010;50.190;18.930;2024-01-07T04:50:39;97828.88;;;-0.70;67.51
76216;BME280;65010;50.190;18.930;2024-01-07T04:53:46;97840.38;;;-0.74;67.66
76216;BME280;65010;50.190;18.930;2024-01-07T04:56:52;97836.88;;;-0.73;68.01
76216;BME280;65010;50.190;18.930;2024-01-07T04:59:59;97832.53;;;-0.72;67.94
76216;BME280;65010;50.190;18.930;2024-01-07T05:03:07;97821.41;;;-0.73;68.63
76216;BME280;65010;50.190;18.930;2024-01-07T05:06:14;97830.53;;;-0.57;67.58
76216;BME280;65010;50.190;18.930;2024-01-07T05:09:20;97835.47;;;-0.54;67.85
76216;BME280;65010;50.190;18.930;2024-01-07T05:12:26;97836.66;;;-0.58;66.67
76216;BME280;65010;50.190;18.930;2024-01-07T05:15:32;97837.34;;;-0.67;66.29
76216;BME280;65010;50.190;18.930;2024-01-07T05:18:41;97844.50;;;-0.71;66.70
76216;BME280;65010;50.190;18.930;2024-01-07T05:21:53;97845.44;;;-0.72;66.92
76216;BME280;65010;50.190;18.930;2024-01-07T05:25:00;97851.88;;;-0.78;66.19
76216;BME280;65010;50.190;18.930;2024-01-07T05:28:07;97854.91;;;-0.84;66.95
76216;BME280;65010;50.190;18.930;2024-01-07T05:31:14;97858.53;;;-0.86;66.98
76216;BME280;65010;50.190;18.930;2024-01-07T05:34:23;97855.84;;;-0.85;67.41
76216;BME280;65010;50.190;18.930;2024-01-07T05:37:30;97862.53;;;-0.82;66.92
76216;BME280;65010;50.190;18.930;2024-01-07T05:40:36;97847.63;;;-0.90;66.54
76216;BME280;65010;50.190;18.930;2024-01-07T05:43:42;97863.56;;;-0.96;66.21
76216;BME280;65010;50.190;18.930;2024-01-07T05:46:50;97868.44;;;-1.04;66.43
76216;BME280;65010;50.190;18.930;2024-01-07T05:50:00;97867.13;;;-1.10;65.82
76216;BME280;65010;50.190;18.930;2024-01-07T05:53:05;97867.13;;;-1.10;66.66
76216;BME280;65010;50.190;18.930;2024-01-07T05:56:12;97867.13;;;-1.10;66.84
76216;BME280;65010;50.190;18.930;2024-01-07T05:59:18;97882.63;;;-1.10;66.82
76216;BME280;65010;50.190;18.930;2024-01-07T06:02:24;97880.47;;;-1.16;65.63
76216;BME280;65010;50.190;18.930;2024-01-07T06:05:33;97891.59;;;-1.27;66.00
76216;BME280;65010;50.190;18.930;2024-01-07T06:08:39;97892.94;;;-1.34;66.34
76216;BME280;65010;50.190;18.930;2024-01-07T06:11:45;97888.72;;;-1.35;67.38
76216;BME280;65010;50.190;18.930;2024-01-07T06:14:52;97885.44;;;-1.37;66.73
76216;BME280;65010;50.190;18.930;2024-01-07T06:17:57;97885.66;;;-1.40;67.60
76216;BME280;65010;50.190;18.930;2024-01-07T06:21:07;97892.56;;;-1.41;67.59
76216;BME280;65010;50.190;18.930;2024-01-07T06:24:13;97892.47;;;-1.39;67.66
76216;BME280;65010;50.190;18.930;2024-01-07T06:27:19;97901.94;;;-1.40;68.13
76216;BME280;65010;50.190;18.930;2024-01-07T06:30:25;97910.16;;;-1.35;68.33
76216;BME280;65010;50.190;18.930;2024-01-07T06:33:32;97903.25;;;-1.34;67.63
76216;BME280;65010;50.190;18.930;2024-01-07T06:36:40;97910.69;;;-1.29;67.76
76216;BME280;65010;50.190;18.930;2024-01-07T06:39:47;97921.47;;;-1.24;67.88
76216;BME280;65010;50.190;18.930;2024-01-07T06:42:53;97921.25;;;-1.21;67.03
76216;BME280;65010;50.190;18.930;2024-01-07T06:45:59;97930.97;;;-1.25;67.01
76216;BME280;65010;50.190;18.930;2024-01-07T06:49:05;97933.13;;;-1.32;67.76
76216;BME280;65010;50.190;18.930;2024-01-07T06:52:15;97929.97;;;-1.35;68.29
76216;BME280;65010;50.190;18.930;2024-01-07T06:55:22;97931.34;;;-1.42;69.13
76216;BME280;65010;50.190;18.930;2024-01-07T06:58:28;97935.50;;;-1.53;69.66
76216;BME280;65010;50.190;18.930;2024-01-07T07:01:34;97930.47;;;-1.67;69.99
76216;BME280;65010;50.190;18.930;2024-01-07T07:04:41;97940.50;;;-1.75;71.14
76216;BME280;65010;50.190;18.930;2024-01-07T07:07:50;97933.19;;;-1.81;71.75
76216;BME280;65010;50.190;18.930;2024-01-07T07:10:57;97941.84;;;-1.82;71.82
76216;BME280;65010;50.190;18.930;2024-01-07T07:14:06;97933.19;;;-1.94;69.27
76216;BME280;65010;50.190;18.930;2024-01-07T07:17:13;97940.22;;;-1.96;71.96
76216;BME280;65010;50.190;18.930;2024-01-07T07:20:19;97943.53;;;-2.07;71.40
76216;BME280;65010;50.190;18.930;2024-01-07T07:23:28;97946.81;;;-2.05;71.81
76216;BME280;65010;50.190;18.930;2024-01-07T07:26:34;97957.13;;;-2.05;71.26
76216;BME280;65010;50.190;18.930;2024-01-07T07:29:44;97954.34;;;-2.02;72.54
76216;BME280;65010;50.190;18.930;2024-01-07T07:32:49;97960.00;;;-1.97;71.73
76216;BME280;65010;50.190;18.930;2024-01-07T07:35:56;97965.16;;;-1.97;72.20
76216;BME280;65010;50.190;18.930;2024-01-07T07:39:05;97971.53;;;-2.02;70.69
76216;BME280;65010;50.190;18.930;2024-01-07T07:42:11;97974.75;;;-2.12;71.08
76216;BME280;65010;50.190;18.930;2024-01-07T07:45:17;97971.66;;;-2.04;72.03
76216;BME280;65010;50.190;18.930;2024-01-07T07:48:24;97972.88;;;-1.97;72.64
76216;BME280;65010;50.190;18.930;2024-01-07T07:51:30;97976.88;;;-1.93;71.30
76216;BME280;65010;50.190;18.930;2024-01-07T07:54:40;97975.03;;;-2.03;69.98
76216;BME280;65010;50.190;18.930;2024-01-07T07:57:45;97981.63;;;-2.12;68.67
76216;BME280;65010;50.190;18.930;2024-01-07T08:00:52;97984.81;;;-2.21;69.33
76216;BME280;65010;50.190;18.930;2024-01-07T08:03:58;97985.13;;;-2.13;71.35
76216;BME280;65010;50.190;18.930;2024-01-07T08:07:06;97990.28;;;-2.00;71.67
76216;BME280;65010;50.190;18.930;2024-01-07T08:10:14;97986.16;;;-1.90;71.52
76216;BME280;65010;50.190;18.930;2024-01-07T08:13:21;97995.75;;;-1.79;71.46
76216;BME280;65010;50.190;18.930;2024-01-07T08:16:27;97982.84;;;-1.79;68.62
76216;BME280;65010;50.190;18.930;2024-01-07T08:19:35;97988.31;;;-1.84;69.58
76216;BME280;65010;50.190;18.930;2024-01-07T08:22:41;97996.03;;;-1.84;68.02
76216;BME280;65010;50.190;18.930;2024-01-07T08:25:51;98002.03;;;-1.83;70.04
76216;BME280;65010;50.190;18.930;2024-01-07T08:28:57;98001.94;;;-1.82;69.63
76216;BME280;65010;50.190;18.930;2024-01-07T08:32:05;98000.66;;;-1.76;69.56
76216;BME280;65010;50.190;18.930;2024-01-07T08:35:13;98002.31;;;-1.88;69.19
76216;BME280;65010;50.190;18.930;2024-01-07T08:38:23;98012.75;;;-1.89;70.29
76216;BME280;65010;50.190;18.930;2024-01-07T08:41:32;98012.63;;;-1.88;71.11
76216;BME280;65010;50.190;18.930;2024-01-07T08:44:38;98012.97;;;-1.80;71.66
76216;BME280;65010;50.190;18.930;2024-01-07T08:47:44;98022.13;;;-1.76;71.50
76216;BME280;65010;50.190;18.930;2024-01-07T08:50:51;98018.50;;;-1.73;72.18
76216;BME280;65010;50.190;18.930;2024-01-07T08:53:58;98024.78;;;-1.64;72.16
76216;BME280;65010;50.190;18.930;2024-01-07T08:57:07;98031.88;;;-1.68;71.15
76216;BME280;65010;50.190;18.930;2024-01-07T09:00:16;98037.03;;;-1.68;71.14
76216;BME280;65010;50.190;18.930;2024-01-07T09:03:25;98036.31;;;-1.70;71.36
76216;BME280;65010;50.190;18.930;2024-01-07T09:06:32;98039.31;;;-1.63;72.38
76216;BME280;65010;50.190;18.930;2024-01-07T09:09:38;98037.47;;;-1.61;71.15
76216;BME280;65010;50.190;18.930;2024-01-07T09:12:48;98038.19;;;-1.59;71.10
76216;BME280;65010;50.190;18.930;2024-01-07T09:15:56;98044.69;;;-1.54;71.05
76216;BME280;65010;50.190;18.930;2024-01-07T09:19:03;98037.13;;;-1.44;72.06
76216;BME280;65010;50.190;18.930;2024-01-07T09:22:09;98038.88;;;-1.44;70.24
76216;BME280;65010;50.190;18.930;2024-01-07T09:25:16;98048.47;;;-1.46;70.28
76216;BME280;65010;50.190;18.930;2024-01-07T09:28:26;98044.56;;;-1.39;71.06
76216;BME280;65010;50.190;18.930;2024-01-07T09:31:31;98040.94;;;-1.37;69.65
76216;BME280;65010;50.190;18.930;2024-01-07T09:34:39;98043.50;;;-1.37;69.60
76216;BME280;65010;50.190;18.930;2024-01-07T09:37:49;98039.88;;;-1.34;69.40
76216;BME280;65010;50.190;18.930;2024-01-07T09:40:56;98039.25;;;-1.25;69.86
76216;BME280;65010;50.190;18.930;2024-01-07T09:44:06;98044.81;;;-1.18;67.89
76216;BME280;65010;50.190;18.930;2024-01-07T09:47:15;98038.00;;;-1.19;67.62
76216;BME280;65010;50.190;18.930;2024-01-07T09:50:21;98029.44;;;-1.20;68.21
76216;BME280;65010;50.190;18.930;2024-01-07T09:53:31;98038.00;;;-1.19;68.03
76216;BME280;65010;50.190;18.930;2024-01-07T09:56:49;98032.34;;;-1.24;68.08
76216;BME280;65010;50.190;18.930;2024-01-07T10:00:03;98030.16;;;-1.18;67.84
76216;BME280;65010;50.190;18.930;2024-01-07T10:03:14;98033.97;;;-1.11;68.14
76216;BME280;65010;50.190;18.930;2024-01-07T10:06:21;98036.31;;;-1.07;67.95
76216;BME280;65010;50.190;18.930;2024-01-07T10:09:30;98026.50;;;-1.02;67.31
76216;BME280;65010;50.190;18.930;2024-01-07T10:12:39;98025.25;;;-0.97;66.95
76216;BME280;65010;50.190;18.930;2024-01-07T10:15:48;98030.78;;;-0.90;66.82
76216;BME280;65010;50.190;18.930;2024-01-07T10:18:55;98032.09;;;-0.84;67.44
76216;BME280;65010;50.190;18.930;2024-01-07T10:22:03;98027.88;;;-0.85;66.19
76216;BME280;65010;50.190;18.930;2024-01-07T10:25:11;98015.56;;;-0.82;66.87
76216;BME280;65010;50.190;18.930;2024-01-07T10:28:17;98027.31;;;-0.78;65.19
76216;BME280;65010;50.190;18.930;2024-01-07T10:31:27;98013.59;;;-0.78;65.01
76216;BME280;65010;50.190;18.930;2024-01-07T10:34:34;98021.84;;;-0.73;65.48
76216;BME280;65010;50.190;18.930;2024-01-07T10:37:42;98022.22;;;-0.66;65.58
76216;BME280;65010;50.190;18.930;2024-01-07T10:40:52;98018.59;;;-0.64;65.30
76216;BME280;65010;50.190;18.930;2024-01-07T10:44:01;98025.78;;;-0.56;65.15
76216;BME280;65010;50.190;18.930;2024-01-07T10:47:14;98023.81;;;-0.53;65.23
76216;BME280;65010;50.190;18.930;2024-01-07T10:50:26;98027.75;;;-0.60;63.29
76216;BME280;65010;50.190;18.930;2024-01-07T10:53:34;98024.44;;;-0.73;65.59
76216;BME280;65010;50.190;18.930;2024-01-07T10:56:49;98036.47;;;-0.85;67.02
76216;BME280;65010;50.190;18.930;2024-01-07T11:00:02;98041.28;;;-0.80;69.76
76216;BME280;65010;50.190;18.930;2024-01-07T11:03:20;98037.66;;;-0.78;70.60
76216;BME280;65010;50.190;18.930;2024-01-07T11:06:43;98046.78;;;-0.61;70.99
76216;BME280;65010;50.190;18.930;2024-01-07T11:10:07;98042.81;;;-0.54;69.09
76216;BME280;65010;50.190;18.930;2024-01-07T11:13:33;98030.84;;;-0.55;67.52
76216;BME280;65010;50.190;18.930;2024-01-07T11:16:44;98036.03;;;-0.43;68.65
76216;BME280;65010;50.190;18.930;2024-01-07T11:19:54;98043.59;;;-0.29;67.57
76216;BME280;65010;50.190;18.930;2024-01-07T11:23:27;98024.94;;;-0.33;66.29
76216;BME280;65010;50.190;18.930;2024-01-07T11:26:40;98042.22;;;-0.22;63.08
76216;BME280;65010;50.190;18.930;2024-01-07T11:29:53;98036.69;;;-0.28;65.46
76216;BME280;65010;50.190;18.930;2024-01-07T11:33:00;98039.59;;;-0.33;65.75
76216;BME280;65010;50.190;18.930;2024-01-07T11:36:11;98046.50;;;-0.45;64.73
76216;BME280;65010;50.190;18.930;2024-01-07T11:39:18;98042.09;;;-0.56;65.41
76216;BME280;65010;50.190;18.930;2024-01-07T11:42:24;98042.50;;;-0.49;66.14
76216;BME280;65010;50.190;18.930;2024-01-07T11:45:31;98038.69;;;-0.56;64.53
76216;BME280;65010;50.190;18.930;2024-01-07T11:48:44;98037.25;;;-0.60;65.40
76216;BME280;65010;50.190;18.930;2024-01-07T11:51:53;98042.81;;;-0.54;66.77
76216;BME280;65010;50.190;18.930;2024-01-07T11:55:00;98029.72;;;-0.63;65.04
76216;BME280;65010;50.190;18.930;2024-01-07T11:58:06;98038.25;;;-0.50;66.06
76216;BME280;65010;50.190;18.930;2024-01-07T12:01:14;98035.16;;;-0.55;65.57
76216;BME280;65010;50.190;18.930;2024-01-07T12:04:23;98041.78;;;-0.51;66.02
76216;BME280;65010;50.190;18.930;2024-01-07T12:07:32;98043.06;;;-0.45;66.12
76216;BME280;65010;50.190;18.930;2024-01-07T12:10:39;98030.75;;;-0.42;65.84
76216;BME280;65010;50.190;18.930;2024-01-07T12:13:46;98026.41;;;-0.53;64.53
76216;BME280;65010;50.190;18.930;2024-01-07T12:16:53;98042.41;;;-0.36;64.71
76216;BME280;65010;50.190;18.930;2024-01-07T12:20:00;98043.00;;;-0.33;64.09
76216;BME280;65010;50.190;18.930;2024-01-07T12:23:10;98035.84;;;-0.29;64.07
76216;BME280;65010;50.190;18.930;2024-01-07T12:26:18;98041.28;;;-0.21;64.42
76216;BME280;65010;50.190;18.930;2024-01-07T12:29:26;98048.09;;;-0.20;64.04
76216;BME280;65010;50.190;18.930;2024-01-07T12:32:32;98042.81;;;-0.18;64.23
76216;BME280;65010;50.190;18.930;2024-01-07T12:35:38;98035.28;;;-0.21;63.53
76216;BME280;65010;50.190;18.930;2024-01-07T12:38:47;98051.72;;;-0.22;63.13
76216;BME280;65010;50.190;18.930;2024-01-07T12:41:53;98045.59;;;-0.33;62.18
76216;BME280;65010;50.190;18.930;2024-01-07T12:45:00;98054.16;;;-0.32;62.73
76216;BME280;65010;50.190;18.930;2024-01-07T12:48:06;98059.78;;;-0.38;61.18
76216;BME280;65010;50.190;18.930;2024-01-07T12:51:13;98058.69;;;-0.47;63.04
76216;BME280;65010;50.190;18.930;2024-01-07T12:54:26;98069.59;;;-0.43;63.22
76216;BME280;65010;50.190;18.930;2024-01-07T12:57:33;98064.56;;;-0.45;63.17
76216;BME280;65010;50.190;18.930;2024-01-07T13:00:39;98071.38;;;-0.44;62.67
76216;BME280;65010;50.190;18.930;2024-01-07T13:03:46;98061.09;;;-0.57;63.89
76216;BME280;65010;50.190;18.930;2024-01-07T13:06:52;98077.78;;;-0.50;63.90
76216;BME280;65010;50.190;18.930;2024-01-07T13:10:01;98084.81;;;-0.52;63.49
76216;BME280;65010;50.190;18.930;2024-01-07T13:13:07;98088.88;;;-0.60;62.95
76216;BME280;65010;50.190;18.930;2024-01-07T13:16:18;98093.81;;;-0.57;63.17
76216;BME280;65010;50.190;18.930;2024-01-07T13:19:24;98088.72;;;-0.70;61.79
76216;BME280;65010;50.190;18.930;2024-01-07T13:22:33;98075.63;;;-0.80;62.29
76216;BME280;65010;50.190;18.930;2024-01-07T13:25:42;98098.00;;;-0.67;62.80
76216;BME280;65010;50.190;18.930;2024-01-07T13:28:49;98093.97;;;-0.72;61.75
76216;BME280;65010;50.190;18.930;2024-01-07T13:31:56;98098.56;;;-0.75;61.89
76216;BME280;65010;50.190;18.930;2024-01-07T13:35:03;98104.97;;;-0.81;60.57
76216;BME280;65010;50.190;18.930;2024-01-07T13:38:13;98106.13;;;-0.85;62.07
76216;BME280;65010;50.190;18.930;2024-01-07T13:41:22;98115.63;;;-0.98;61.42
76216;BME280;65010;50.190;18.930;2024-01-07T13:44:31;98122.66;;;-1.00;62.51
76216;BME280;65010;50.190;18.930;2024-01-07T13:47:38;98116.16;;;-1.06;62.61
76216;BME280;65010;50.190;18.930;2024-01-07T13:50:44;98120.69;;;-1.10;62.47
76216;BME280;65010;50.190;18.930;2024-01-07T13:53:52;98128.13;;;-1.18;62.72
76216;BME280;65010;50.190;18.930;2024-01-07T13:57:00;98132.72;;;-1.21;62.73
76216;BME280;65010;50.190;18.930;2024-01-07T14:00:08;98135.91;;;-1.43;61.32
76216;BME280;65010;50.190;18.930;2024-01-07T14:03:21;98131.69;;;-1.57;62.09
76216;BME280;65010;50.190;18.930;2024-01-07T14:06:28;98147.66;;;-1.65;63.01
76216;BME280;65010;50.190;18.930;2024-01-07T14:09:34;98139.38;;;-1.70;62.44
76216;BME280;65010;50.190;18.930;2024-01-07T14:12:43;98147.09;;;-1.96;63.46
76216;BME280;65010;50.190;18.930;2024-01-07T14:15:49;98155.81;;;-1.98;65.40
76216;BME280;65010;50.190;18.930;2024-01-07T14:18:56;98156.66;;;-1.98;65.32
76216;BME280;65010;50.190;18.930;2024-01-07T14:22:02;98155.50;;;-2.06;65.37
76216;BME280;65010;50.190;18.930;2024-01-07T14:25:09;98153.13;;;-2.09;64.60
76216;BME280;65010;50.190;18.930;2024-01-07T14:28:19;98156.94;;;-2.02;67.75
76216;BME280;65010;50.190;18.930;2024-01-07T14:31:26;98165.94;;;-1.95;67.50
76216;BME280;65010;50.190;18.930;2024-01-07T14:34:32;98168.41;;;-1.94;67.73
76216;BME280;65010;50.190;18.930;2024-01-07T14:37:38;98158.84;;;-1.92;67.25
76216;BME280;65010;50.190;18.930;2024-01-07T14:40:44;98170.88;;;-1.92;66.33
76216;BME280;65010;50.190;18.930;2024-01-07T14:43:54;98169.03;;;-1.90;66.57
76216;BME280;65010;50.190;18.930;2024-01-07T14:46:59;98167.91;;;-1.86;66.19
76216;BME280;65010;50.190;18.930;2024-01-07T14:50:07;98172.13;;;-1.85;65.58
76216;BME280;65010;50.190;18.930;2024-01-07T14:53:14;98170.88;;;-1.92;64.24
76216;BME280;65010;50.190;18.930;2024-01-07T14:56:20;98175.22;;;-1.93;65.43
76216;BME280;65010;50.190;18.930;2024-01-07T14:59:29;98178.31;;;-1.87;65.37
76216;BME280;65010;50.190;18.930;2024-01-07T15:02:36;98160.97;;;-1.98;64.96
76216;BME280;65010;50.190;18.930;2024-01-07T15:05:42;98176.75;;;-1.90;64.67
76216;BME280;65010;50.190;18.930;2024-01-07T15:08:48;98185.50;;;-1.93;63.80
76216;BME280;65010;50.190;18.930;2024-01-07T15:11:56;98190.97;;;-1.97;63.64
76216;BME280;65010;50.190;18.930;2024-01-07T15:15:06;98192.72;;;-1.98;63.01
76216;BME280;65010;50.190;18.930;2024-01-07T15:18:13;98205.78;;;-2.01;62.55
76216;BME280;65010;50.190;18.930;2024-01-07T15:21:20;98205.44;;;-2.09;62.54
76216;BME280;65010;50.190;18.930;2024-01-07T15:24:27;98203.25;;;-2.15;61.15
76216;BME280;65010;50.190;18.930;2024-01-07T15:27:33;98211.00;;;-2.15;62.80
76216;BME280;65010;50.190;18.930;2024-01-07T15:30:42;98205.03;;;-2.16;62.55
76216;BME280;65010;50.190;18.930;2024-01-07T15:33:50;98209.47;;;-2.32;61.37
76216;BME280;65010;50.190;18.930;2024-01-07T15:36:56;98214.81;;;-2.35;62.35
76216;BME280;65010;50.190;18.930;2024-01-07T15:40:04;98203.34;;;-2.44;62.90
76216;BME280;65010;50.190;18.930;2024-01-07T15:43:11;98212.41;;;-2.38;62.84
76216;BME280;65010;50.190;18.930;2024-01-07T15:46:21;98218.03;;;-2.32;63.31
76216;BME280;65010;50.190;18.930;2024-01-07T15:49:27;98224.25;;;-2.21;63.95
76216;BME280;65010;50.190;18.930;2024-01-07T15:52:34;98236.31;;;-2.22;62.90
76216;BME280;65010;50.190;18.930;2024-01-07T15:55:40;98233.91;;;-2.25;62.42
76216;BME280;65010;50.190;18.930;2024-01-07T15:58:47;98230.59;;;-2.27;62.26
76216;BME280;65010;50.190;18.930;2024-01-07T16:01:55;98234.84;;;-2.26;62.21
76216;BME280;65010;50.190;18.930;2024-01-07T16:05:02;98220.13;;;-2.38;62.32
76216;BME280;65010;50.190;18.930;2024-01-07T16:08:11;98246.97;;;-2.28;62.12
76216;BME280;65010;50.190;18.930;2024-01-07T16:11:17;98248.63;;;-2.27;62.30
76216;BME280;65010;50.190;18.930;2024-01-07T16:14:23;98250.56;;;-2.31;62.20
76216;BME280;65010;50.190;18.930;2024-01-07T16:17:33;98257.47;;;-2.31;62.07
76216;BME280;65010;50.190;18.930;2024-01-07T16:20:39;98258.28;;;-2.31;62.16
76216;BME280;65010;50.190;18.930;2024-01-07T16:23:46;98259.31;;;-2.33;62.12
76216;BME280;65010;50.190;18.930;2024-01-07T16:26:53;98259.75;;;-2.41;61.00
76216;BME280;65010;50.190;18.930;2024-01-07T16:30:00;98271.38;;;-2.48;61.15